KCCY/CCY METAR and TAF weather

Enter ICAO airport designator
Station Type Date Time Source
KCCY METAR 2018/12/13 16:35 UTC NOAA

KCCY 131635Z AUTO 15006KT 5SM -UP OVC049 M00/M01 A2999 RMK AO2


Station Type Date Time Source
KCCY Decoded METAR 2018/12/13 16:35 UTC NOAA

Charles City, IA, United States (KCCY) 43-04N 092-37W
Dec 13, 2018 - 11:35 AM EST / 2018.12.13 1635 UTC
Wind: from the SSE (150 degrees) at 7 MPH (6 KT):0
Visibility: 5 mile(s):0
Sky conditions: overcast
Weather: light precipitation
Temperature: 32 F (0 C)
Windchill: 24 F (-4 C):1
Dew Point: 30 F (-1 C)
Relative Humidity: 92%
Pressure (altimeter): 29.99 in. Hg (1015 hPa)
ob: KCCY 131635Z AUTO 15006KT 5SM -UP OVC049 M00/M01 A2999 RMK AO2
cycle: 16

Station Type Date Time Source
KCCY TAF UTC NOAA

Error!


Example: see airport list